createdAt,value
2022-07-29T00:00:57.950Z,100581.13
2022-07-29T00:03:25.753Z,100570.50
2022-07-29T00:05:54.348Z,100566.34
2022-07-29T00:08:22.068Z,100573.19
2022-07-29T00:10:51.525Z,100564.34
2022-07-29T00:13:19.261Z,100566.34
2022-07-29T00:18:14.205Z,100565.28
2022-07-29T00:20:41.940Z,100559.31
2022-07-29T00:23:09.648Z,100561.56
2022-07-29T00:25:41.699Z,100559.97
2022-07-29T00:28:09.529Z,100550.34
2022-07-29T00:30:37.251Z,100558.53
2022-07-29T00:33:09.030Z,100548.06
2022-07-29T00:35:46.315Z,100552.44
2022-07-29T00:38:14.502Z,100541.94
2022-07-29T00:40:43.305Z,100545.63
2022-07-29T00:43:11.938Z,100510.44
2022-07-29T00:45:39.663Z,100544.03
2022-07-29T00:48:09.567Z,100542.34
2022-07-29T00:50:38.878Z,100535.97
2022-07-29T00:53:07.320Z,100533.41
2022-07-29T00:55:35.055Z,100540.78
2022-07-29T00:58:02.785Z,100517.69
2022-07-29T01:00:30.854Z,100510.56
2022-07-29T01:02:58.701Z,100516.13
2022-07-29T01:05:48.484Z,100511.59
2022-07-29T01:08:16.463Z,100476.13
2022-07-29T01:10:44.185Z,100509.06
2022-07-29T01:13:11.951Z,100515.41
2022-07-29T01:15:49.303Z,100519.94
2022-07-29T01:18:22.194Z,100508.31
2022-07-29T01:21:17.374Z,100483.19
2022-07-29T01:24:10.971Z,100489.84
2022-07-29T01:26:44.347Z,100505.91
2022-07-29T01:29:16.705Z,100491.84
2022-07-29T01:31:59.008Z,100508.72
2022-07-29T01:34:32.047Z,100513.25
2022-07-29T01:37:04.205Z,100439.50
2022-07-29T01:39:33.400Z,100503.75
2022-07-29T01:42:03.973Z,100456.94
2022-07-29T01:44:36.520Z,100451.00
2022-07-29T01:47:07.579Z,100505.59
2022-07-29T01:49:37.804Z,100452.28
2022-07-29T01:52:08.809Z,100501.34
2022-07-29T01:54:39.139Z,100440.28
2022-07-29T01:57:07.173Z,100481.78
2022-07-29T01:59:37.520Z,100378.94
2022-07-29T02:02:05.663Z,100474.72
2022-07-29T02:04:33.444Z,100478.28
2022-07-29T02:07:03.694Z,100473.03
2022-07-29T02:09:31.610Z,100471.44
2022-07-29T02:11:59.340Z,100475.00
2022-07-29T02:14:27.042Z,100474.13
2022-07-29T02:16:56.695Z,100465.78
2022-07-29T02:19:24.749Z,100473.56
2022-07-29T02:21:53.583Z,100479.78
2022-07-29T02:24:21.591Z,100466.47
2022-07-29T02:26:49.322Z,100438.91
2022-07-29T02:29:17.025Z,100467.59
2022-07-29T02:31:45.269Z,100467.47
2022-07-29T02:34:14.482Z,100460.41
2022-07-29T02:36:49.524Z,100466.03
2022-07-29T02:39:17.437Z,100422.06
2022-07-29T02:41:46.727Z,100361.53
2022-07-29T02:44:15.497Z,100413.94
2022-07-29T02:46:45.910Z,100459.94
2022-07-29T02:49:17.600Z,100456.53
2022-07-29T02:51:46.221Z,100453.00
2022-07-29T02:54:24.907Z,100457.53
2022-07-29T02:56:54.714Z,100460.34
2022-07-29T02:59:24.248Z,100456.78
2022-07-29T03:01:52.066Z,100455.09
2022-07-29T03:04:21.474Z,100453.41
2022-07-29T03:06:49.496Z,100456.22
2022-07-29T03:09:17.379Z,100382.88
2022-07-29T03:11:49.301Z,100459.88
2022-07-29T03:14:20.371Z,100400.28
2022-07-29T03:16:48.672Z,100454.78
2022-07-29T03:19:16.465Z,100440.88
2022-07-29T03:21:45.585Z,100443.19
2022-07-29T03:24:25.802Z,100448.81
2022-07-29T03:26:53.534Z,100442.69
2022-07-29T03:29:21.256Z,100448.06
2022-07-29T03:31:49.280Z,100456.16
2022-07-29T03:34:17.760Z,100396.44
2022-07-29T03:36:48.134Z,100448.22
2022-07-29T03:39:16.934Z,100453.00
2022-07-29T03:41:44.676Z,100453.84
2022-07-29T03:44:12.679Z,100456.41
2022-07-29T03:46:40.620Z,100453.00
2022-07-29T03:49:09.263Z,100450.31
2022-07-29T03:51:37.175Z,100447.75
2022-07-29T03:54:10.095Z,100447.75
2022-07-29T03:56:40.536Z,100396.50
2022-07-29T03:59:08.365Z,100416.81
2022-07-29T04:01:36.346Z,100451.56
2022-07-29T04:04:04.792Z,100453.56
2022-07-29T04:06:40.049Z,100459.75
2022-07-29T04:09:09.754Z,100458.22
2022-07-29T04:11:59.183Z,100461.75
2022-07-29T04:14:25.569Z,100458.22
2022-07-29T04:16:53.970Z,100460.88
2022-07-29T04:19:21.709Z,100448.31
2022-07-29T04:21:49.444Z,100451.13
2022-07-29T04:24:18.927Z,100443.22
2022-07-29T04:26:47.491Z,100428.91
2022-07-29T04:29:15.582Z,100444.19
2022-07-29T04:31:43.475Z,100437.97
2022-07-29T04:34:11.347Z,100407.38
2022-07-29T04:36:39.091Z,100449.69
2022-07-29T04:39:06.793Z,100438.94
2022-07-29T04:41:35.887Z,100446.16
2022-07-29T04:44:06.945Z,100442.63
2022-07-29T04:46:35.281Z,100440.78
2022-07-29T04:49:03.196Z,100394.34
2022-07-29T04:51:31.026Z,100446.28
2022-07-29T04:53:58.737Z,100448.97
2022-07-29T04:56:26.489Z,100451.66
2022-07-29T04:58:55.549Z,100444.44
2022-07-29T05:01:23.321Z,100448.97
2022-07-29T05:03:51.073Z,100455.19
2022-07-29T05:06:18.843Z,100448.97
2022-07-29T05:08:46.546Z,100448.00
2022-07-29T05:11:18.115Z,100449.81
2022-07-29T05:13:48.695Z,100431.94
2022-07-29T05:16:18.124Z,100450.69
2022-07-29T05:18:45.882Z,100443.59
2022-07-29T05:21:13.824Z,100445.31
2022-07-29T05:23:41.523Z,100444.44
2022-07-29T05:26:09.253Z,100436.50
2022-07-29T05:28:36.972Z,100443.34
2022-07-29T05:31:04.732Z,100450.41
2022-07-29T05:33:34.624Z,100448.72
2022-07-29T05:36:06.497Z,100447.00
2022-07-29T05:38:34.355Z,100446.28
2022-07-29T05:41:02.197Z,100398.34
2022-07-29T05:43:29.994Z,100434.56
2022-07-29T05:45:57.843Z,100425.91
2022-07-29T05:48:25.717Z,100422.66
2022-07-29T05:50:54.814Z,100423.19
2022-07-29T05:53:22.533Z,100427.97
2022-07-29T05:55:50.274Z,100439.69
2022-07-29T05:58:17.987Z,100443.34
2022-07-29T06:00:45.809Z,100448.59
2022-07-29T06:03:13.595Z,100450.31
2022-07-29T06:05:41.332Z,100458.22
2022-07-29T06:08:10.390Z,100447.03
2022-07-29T06:10:38.155Z,100451.88
2022-07-29T06:13:05.881Z,100310.50
2022-07-29T06:15:34.425Z,100453.00
2022-07-29T06:18:02.461Z,100452.41
2022-07-29T06:20:31.272Z,100421.00
2022-07-29T06:22:59.434Z,100445.47
2022-07-29T06:25:30.294Z,100450.97
2022-07-29T06:27:58.170Z,100440.34
2022-07-29T06:30:26.007Z,100446.56
2022-07-29T06:32:53.757Z,100438.63
2022-07-29T06:35:42.120Z,100437.78
2022-07-29T06:38:19.685Z,100435.25
2022-07-29T06:41:08.644Z,100429.75
2022-07-29T06:43:50.071Z,100438.63
2022-07-29T06:46:21.114Z,100412.44
2022-07-29T06:48:49.565Z,100428.34
2022-07-29T06:51:22.943Z,100433.72
2022-07-29T06:54:00.607Z,100432.59
2022-07-29T06:56:38.992Z,100434.44
2022-07-29T06:59:07.564Z,100399.22
2022-07-29T07:01:35.343Z,100437.28
2022-07-29T07:04:03.161Z,100437.84
2022-07-29T07:06:30.975Z,100439.44
2022-07-29T07:08:58.762Z,100439.56
2022-07-29T07:11:26.502Z,100449.91
2022-07-29T07:14:00.637Z,100411.47
2022-07-29T07:16:30.701Z,100438.03
2022-07-29T07:18:58.475Z,100439.72
2022-07-29T07:21:26.223Z,100438.63
2022-07-29T07:23:57.859Z,100443.00
2022-07-29T07:26:26.146Z,100437.63
2022-07-29T07:28:55.244Z,100433.13
2022-07-29T07:31:23.077Z,100436.78
2022-07-29T07:33:50.845Z,100429.44
2022-07-29T07:36:18.617Z,100424.06
2022-07-29T07:38:46.358Z,100424.06
2022-07-29T07:41:14.108Z,100426.63
2022-07-29T07:43:41.806Z,100436.50
2022-07-29T07:46:10.987Z,100440.94
2022-07-29T07:48:38.863Z,100434.69
2022-07-29T07:51:06.650Z,100441.63
2022-07-29T07:53:34.405Z,100437.97
2022-07-29T07:56:11.467Z,100440.66
2022-07-29T07:58:40.448Z,100445.03
2022-07-29T08:01:08.432Z,100443.34
2022-07-29T08:03:37.604Z,100441.47
2022-07-29T08:06:05.507Z,100446.03
2022-07-29T08:08:33.230Z,100453.09
2022-07-29T08:11:06.925Z,100455.78
2022-07-29T08:13:36.603Z,100451.28
2022-07-29T08:16:12.585Z,100437.97
2022-07-29T08:18:42.113Z,100388.59
2022-07-29T08:21:09.844Z,100439.53
2022-07-29T08:23:47.161Z,100367.31
2022-07-29T08:26:15.452Z,100452.81
2022-07-29T08:28:45.771Z,100448.44
2022-07-29T08:31:13.905Z,100444.44
2022-07-29T08:33:43.057Z,100453.09
2022-07-29T08:36:10.848Z,100457.47
2022-07-29T08:38:38.554Z,100458.06
2022-07-29T08:41:06.287Z,100453.41
2022-07-29T08:43:36.103Z,100461.31
2022-07-29T08:46:03.888Z,100453.25
2022-07-29T08:48:31.663Z,100465.72
2022-07-29T08:51:00.744Z,100461.31
2022-07-29T08:53:30.198Z,100455.94
2022-07-29T08:55:58.098Z,100461.19
2022-07-29T08:58:25.996Z,100455.81
2022-07-29T09:00:55.590Z,100391.16
2022-07-29T09:03:25.548Z,100349.44
2022-07-29T09:05:53.381Z,100455.69
2022-07-29T09:08:22.506Z,100457.41
2022-07-29T09:10:50.276Z,100463.75
2022-07-29T09:13:17.972Z,100464.59
2022-07-29T09:15:45.937Z,100464.59
2022-07-29T09:18:20.333Z,100461.06
2022-07-29T09:21:16.458Z,100458.38
2022-07-29T09:24:02.732Z,100453.72
2022-07-29T09:26:31.365Z,100455.69
2022-07-29T09:28:59.187Z,100458.38
2022-07-29T09:31:34.872Z,100456.81
2022-07-29T09:34:02.594Z,100453.84
2022-07-29T09:36:30.473Z,100447.63
2022-07-29T09:39:03.292Z,100446.78
2022-07-29T09:41:31.045Z,100447.63
2022-07-29T09:43:59.084Z,100370.19
2022-07-29T09:46:27.106Z,100407.75
2022-07-29T09:49:10.666Z,100368.22
2022-07-29T09:51:38.898Z,100428.25
2022-07-29T09:54:26.601Z,100432.50
2022-07-29T09:56:55.160Z,100426.97
2022-07-29T09:59:27.273Z,100429.53
2022-07-29T10:01:55.511Z,100424.88
2022-07-29T10:04:23.442Z,100426.56
2022-07-29T10:07:03.901Z,100335.53
2022-07-29T10:09:34.356Z,100426.34
2022-07-29T10:12:10.055Z,100430.59
2022-07-29T10:14:37.927Z,100433.13
2022-07-29T10:17:06.337Z,100433.00
2022-07-29T10:19:34.595Z,100343.38
2022-07-29T10:22:03.811Z,100429.47
2022-07-29T10:24:32.415Z,100435.81
2022-07-29T10:27:02.677Z,100360.47
2022-07-29T10:29:32.358Z,100422.88
2022-07-29T10:32:22.758Z,100434.00
2022-07-29T10:35:00.016Z,100431.31
2022-07-29T10:37:36.184Z,100346.34
2022-07-29T10:40:29.270Z,100419.69
2022-07-29T10:42:58.315Z,100422.50
2022-07-29T10:45:28.818Z,100415.31
2022-07-29T10:48:05.470Z,100414.44
2022-07-29T10:50:57.824Z,100423.25
2022-07-29T10:53:25.531Z,100422.38
2022-07-29T10:55:54.797Z,100426.78
2022-07-29T10:58:25.246Z,100361.25
2022-07-29T11:00:53.815Z,100346.22
2022-07-29T11:03:53.691Z,100432.47
2022-07-29T11:06:28.094Z,100431.75
2022-07-29T11:09:16.926Z,100426.94
2022-07-29T11:11:51.268Z,100439.56
2022-07-29T11:14:26.451Z,100435.75
2022-07-29T11:17:03.387Z,100433.59
2022-07-29T11:19:34.394Z,100440.13
2022-07-29T11:22:03.959Z,100440.13
2022-07-29T11:24:34.900Z,100442.69
2022-07-29T11:27:18.294Z,100436.34
2022-07-29T11:29:53.979Z,100433.66
2022-07-29T11:32:22.853Z,100403.50
2022-07-29T11:34:51.710Z,100433.66
2022-07-29T11:37:27.768Z,100436.19
2022-07-29T11:40:26.191Z,100433.38
2022-07-29T11:42:53.975Z,100433.38
2022-07-29T11:45:43.289Z,100431.38
2022-07-29T11:48:29.566Z,100427.13
2022-07-29T11:51:00.373Z,100433.94
2022-07-29T11:53:28.938Z,100425.72
2022-07-29T11:56:00.063Z,100355.38
2022-07-29T11:58:28.123Z,100427.16
2022-07-29T12:00:57.209Z,100429.72
2022-07-29T12:03:35.249Z,100437.53
2022-07-29T12:06:04.437Z,100424.75
2022-07-29T12:08:42.253Z,100416.41
2022-07-29T12:11:17.415Z,100330.22
2022-07-29T12:13:49.258Z,100419.56
2022-07-29T12:16:27.988Z,100407.53
2022-07-29T12:19:00.022Z,100398.22
2022-07-29T12:21:28.917Z,100411.38
2022-07-29T12:24:03.477Z,100320.41
2022-07-29T12:26:36.842Z,100387.72
2022-07-29T12:29:08.485Z,100296.34
2022-07-29T12:31:44.078Z,100394.94
2022-07-29T12:34:13.155Z,100381.25
2022-07-29T12:36:41.016Z,100383.66
2022-07-29T12:39:10.057Z,100379.13
2022-07-29T12:41:37.926Z,100375.44
2022-07-29T12:44:06.052Z,100368.94
2022-07-29T12:46:33.827Z,100372.31
2022-07-29T12:49:04.118Z,100371.22
2022-07-29T12:51:32.289Z,100364.56
2022-07-29T12:54:08.416Z,100369.06
2022-07-29T12:56:44.819Z,100362.84
2022-07-29T12:59:14.071Z,100360.31
2022-07-29T13:01:41.790Z,100354.50
2022-07-29T13:04:10.873Z,100348.97
2022-07-29T13:06:39.980Z,100294.56
2022-07-29T13:09:10.806Z,100349.22
2022-07-29T13:11:42.178Z,100346.25
2022-07-29T13:14:13.975Z,100271.19
2022-07-29T13:17:03.068Z,100340.28
2022-07-29T13:19:42.295Z,100255.88
2022-07-29T13:22:10.257Z,100241.91
2022-07-29T13:24:47.985Z,100322.72
2022-07-29T13:27:16.229Z,100327.13
2022-07-29T13:29:43.935Z,100210.63
2022-07-29T13:32:13.847Z,100253.81
2022-07-29T13:34:42.884Z,100323.13
2022-07-29T13:37:10.689Z,100325.69
2022-07-29T13:39:38.623Z,100323.84
2022-07-29T13:42:10.527Z,100315.63
2022-07-29T13:44:39.099Z,100316.47
2022-07-29T13:47:07.124Z,100319.84
2022-07-29T13:49:34.842Z,100314.31
2022-07-29T13:52:04.297Z,100317.03
2022-07-29T13:54:32.186Z,100310.81
2022-07-29T13:56:59.906Z,100306.53
2022-07-29T13:59:27.605Z,100308.09
2022-07-29T14:01:55.477Z,100300.31
2022-07-29T14:04:24.290Z,100313.34
2022-07-29T14:06:52.076Z,100312.78
2022-07-29T14:09:21.143Z,100310.66
2022-07-29T14:11:50.653Z,100310.66
2022-07-29T14:14:18.375Z,100311.63
2022-07-29T14:16:47.880Z,100311.47
2022-07-29T14:19:19.699Z,100310.66
2022-07-29T14:21:47.419Z,100302.56
2022-07-29T14:24:21.553Z,100305.28
2022-07-29T14:26:52.163Z,100310.50
2022-07-29T14:29:19.951Z,100297.88
2022-07-29T14:31:47.723Z,100306.81
2022-07-29T14:34:16.481Z,100308.50
2022-07-29T14:36:44.217Z,100307.22
2022-07-29T14:39:11.943Z,100305.94
2022-07-29T14:41:39.655Z,100307.38
2022-07-29T14:44:08.787Z,100303.09
2022-07-29T14:46:36.486Z,100299.81
2022-07-29T14:49:04.237Z,100299.22
2022-07-29T14:51:34.700Z,100305.00
2022-07-29T14:54:02.455Z,100298.47
2022-07-29T14:56:46.719Z,100296.91
2022-07-29T14:59:16.164Z,100302.56
2022-07-29T15:01:43.937Z,100295.78
2022-07-29T15:04:11.664Z,100299.00
2022-07-29T15:06:39.819Z,100299.88
2022-07-29T15:09:07.742Z,100213.13
2022-07-29T15:11:38.358Z,100291.22
2022-07-29T15:14:06.729Z,100298.03
2022-07-29T15:16:37.387Z,100219.78
2022-07-29T15:19:05.206Z,100301.56
2022-07-29T15:21:32.906Z,100299.56
2022-07-29T15:24:00.635Z,100297.75
2022-07-29T15:26:28.358Z,100294.03
2022-07-29T15:28:56.558Z,100292.19
2022-07-29T15:31:24.371Z,100200.81
2022-07-29T15:33:58.071Z,100287.41
2022-07-29T15:36:50.972Z,100294.50
2022-07-29T15:39:14.850Z,100292.78
2022-07-29T15:41:42.547Z,100284.88
2022-07-29T15:44:10.313Z,100279.47
2022-07-29T15:46:55.844Z,100278.59
2022-07-29T15:49:31.421Z,100276.06
2022-07-29T15:52:17.072Z,100231.38
2022-07-29T15:54:44.806Z,100277.91
2022-07-29T15:57:12.866Z,100274.38
2022-07-29T15:59:40.584Z,100272.66
2022-07-29T16:02:08.694Z,100268.13
2022-07-29T16:04:37.876Z,100268.28
2022-07-29T16:07:05.615Z,100258.50
2022-07-29T16:09:33.428Z,100256.78
2022-07-29T16:12:01.126Z,100257.66
2022-07-29T16:14:29.102Z,100255.97
2022-07-29T16:16:57.202Z,100258.66
2022-07-29T16:19:25.088Z,100257.66
2022-07-29T16:21:58.154Z,100261.34
2022-07-29T16:24:29.831Z,100256.94
2022-07-29T16:26:57.839Z,100263.19
2022-07-29T16:29:25.728Z,100257.81
2022-07-29T16:31:54.040Z,100253.41
2022-07-29T16:34:21.855Z,100257.94
2022-07-29T16:36:49.547Z,100261.66
2022-07-29T16:39:18.611Z,100258.97
2022-07-29T16:41:46.308Z,100259.94
2022-07-29T16:44:14.350Z,100261.94
2022-07-29T16:46:44.652Z,100266.47
2022-07-29T16:49:12.667Z,100266.47
2022-07-29T16:51:47.754Z,100257.97
2022-07-29T16:54:15.552Z,100265.91
2022-07-29T16:56:44.615Z,100269.47
2022-07-29T16:59:12.386Z,100278.56
2022-07-29T17:01:40.145Z,100268.75
2022-07-29T17:04:07.958Z,100267.94
2022-07-29T17:06:35.902Z,100198.31
2022-07-29T17:09:03.841Z,100260.97
2022-07-29T17:11:51.941Z,100262.84
2022-07-29T17:14:23.428Z,100262.13
2022-07-29T17:17:02.573Z,100187.56
2022-07-29T17:19:31.504Z,100207.25
2022-07-29T17:22:08.904Z,100261.41
2022-07-29T17:24:39.058Z,100259.84
2022-07-29T17:27:08.636Z,100262.69
2022-07-29T17:29:38.768Z,100267.06
2022-07-29T17:32:07.764Z,100264.53
2022-07-29T17:34:36.203Z,100264.53
2022-07-29T17:37:04.097Z,100273.63
2022-07-29T17:39:31.925Z,100272.75
2022-07-29T17:41:59.625Z,100268.38
2022-07-29T17:44:27.347Z,100264.00
2022-07-29T17:46:56.700Z,100271.06
2022-07-29T17:49:24.822Z,100273.91
2022-07-29T17:51:53.865Z,100271.34
2022-07-29T17:54:26.690Z,100275.88
2022-07-29T17:56:54.470Z,100280.44
2022-07-29T17:59:22.284Z,100278.72
2022-07-29T18:01:50.007Z,100285.13
2022-07-29T18:04:20.985Z,100292.34
2022-07-29T18:06:48.716Z,100294.19
2022-07-29T18:09:16.461Z,100294.34
2022-07-29T18:11:44.391Z,100298.88
2022-07-29T18:14:13.546Z,100294.50
2022-07-29T18:19:09.007Z,100301.72
2022-07-29T18:21:51.325Z,100299.16
2022-07-29T18:24:22.572Z,100305.56
2022-07-29T18:26:50.258Z,100305.56
2022-07-29T18:29:17.973Z,100317.31
2022-07-29T18:31:45.724Z,100318.31
2022-07-29T18:34:13.464Z,100316.47
2022-07-29T18:36:42.544Z,100322.69
2022-07-29T18:39:10.279Z,100322.97
2022-07-29T18:41:49.940Z,100330.22
2022-07-29T18:44:18.928Z,100333.91
2022-07-29T18:46:55.481Z,100351.91
2022-07-29T18:49:23.351Z,100340.28
2022-07-29T18:51:52.504Z,100350.19
2022-07-29T18:54:20.267Z,100352.91
2022-07-29T18:56:47.991Z,100354.91
2022-07-29T18:59:19.649Z,100353.19
2022-07-29T19:01:47.530Z,100353.19
2022-07-29T19:04:15.471Z,100356.88
2022-07-29T19:06:43.238Z,100362.41
2022-07-29T19:09:12.350Z,100360.56
2022-07-29T19:11:40.124Z,100362.56
2022-07-29T19:14:08.118Z,100353.91
2022-07-29T19:16:35.968Z,100368.94
2022-07-29T19:19:03.743Z,100374.47
2022-07-29T19:21:31.460Z,100380.69
2022-07-29T19:24:00.053Z,100386.22
2022-07-29T19:26:36.590Z,100387.94
2022-07-29T19:29:04.540Z,100396.16
2022-07-29T19:31:32.389Z,100385.22
2022-07-29T19:34:00.221Z,100394.44
2022-07-29T19:36:28.272Z,100399.97
2022-07-29T19:38:56.038Z,100409.03
2022-07-29T19:41:23.836Z,100415.28
2022-07-29T19:43:53.342Z,100406.06
2022-07-29T19:46:21.239Z,100415.13
2022-07-29T19:48:49.118Z,100392.72
2022-07-29T19:51:17.756Z,100441.47
2022-07-29T19:53:45.520Z,100448.84
2022-07-29T19:56:13.286Z,100443.47
2022-07-29T19:58:41.225Z,100448.84
2022-07-29T20:01:10.970Z,100432.69
2022-07-29T20:03:39.809Z,100434.69
2022-07-29T20:06:07.857Z,100427.31
2022-07-29T20:08:35.721Z,100443.75
2022-07-29T20:11:03.456Z,100440.34
2022-07-29T20:13:33.179Z,100446.56
2022-07-29T20:16:01.229Z,100449.41
2022-07-29T20:18:30.404Z,100461.03
2022-07-29T20:21:00.245Z,100471.06
2022-07-29T20:23:27.989Z,100481.00
2022-07-29T20:26:01.043Z,100489.91
2022-07-29T20:28:28.760Z,100471.78
2022-07-29T20:30:56.572Z,100503.38
2022-07-29T20:33:24.468Z,100507.06
2022-07-29T20:35:53.748Z,100507.06
2022-07-29T20:38:21.483Z,100508.34
2022-07-29T20:40:50.750Z,100516.28
2022-07-29T20:43:18.519Z,100513.88
2022-07-29T20:45:46.244Z,100515.44
2022-07-29T20:48:13.959Z,100515.44
2022-07-29T20:50:42.683Z,100518.53
2022-07-29T20:53:11.965Z,100524.50
2022-07-29T20:55:39.780Z,100521.94
2022-07-29T20:58:07.499Z,100531.84
2022-07-29T21:00:35.265Z,100525.47
2022-07-29T21:03:03.022Z,100527.59
2022-07-29T21:05:32.817Z,100532.84
2022-07-29T21:08:00.630Z,100538.09
2022-07-29T21:10:29.832Z,100540.94
2022-07-29T21:12:57.577Z,100536.50
2022-07-29T21:15:27.483Z,100532.25
2022-07-29T21:18:00.604Z,100535.81
2022-07-29T21:20:28.581Z,100538.66
2022-07-29T21:22:56.478Z,100540.34
2022-07-29T21:25:24.236Z,100535.09
2022-07-29T21:28:10.819Z,100531.41
2022-07-29T21:30:38.559Z,100530.72
2022-07-29T21:33:06.377Z,100519.09
2022-07-29T21:36:06.873Z,100530.72
2022-07-29T21:38:21.976Z,100518.72
2022-07-29T21:40:50.997Z,100475.03
2022-07-29T21:43:20.116Z,100522.78
2022-07-29T21:45:50.279Z,100526.44
2022-07-29T21:48:18.464Z,100524.59
2022-07-29T21:50:46.793Z,100519.22
2022-07-29T21:53:15.708Z,100521.19
2022-07-29T21:55:43.772Z,100518.59
2022-07-29T21:58:12.281Z,100523.16
2022-07-29T22:00:41.387Z,100532.06
2022-07-29T22:03:09.186Z,100526.81
2022-07-29T22:05:36.904Z,100526.81
2022-07-29T22:08:04.820Z,100519.59
2022-07-29T22:10:33.488Z,100484.97
2022-07-29T22:13:01.928Z,100477.31
2022-07-29T22:15:29.863Z,100517.31
2022-07-29T22:17:59.044Z,100513.91
2022-07-29T22:20:26.776Z,100510.25
2022-07-29T22:22:54.793Z,100513.91
2022-07-29T22:25:22.758Z,100463.81
2022-07-29T22:27:50.458Z,100512.22
2022-07-29T22:30:18.433Z,100507.69
2022-07-29T22:32:46.347Z,100507.69
2022-07-29T22:35:15.408Z,100505.13
2022-07-29T22:37:43.150Z,100502.59
2022-07-29T22:40:11.545Z,100502.59
2022-07-29T22:42:40.761Z,100510.66
2022-07-29T22:45:10.336Z,100499.03
2022-07-29T22:47:46.162Z,100494.91
2022-07-29T22:50:17.315Z,100487.53
2022-07-29T22:52:45.190Z,100486.72
2022-07-29T22:55:12.938Z,100486.72
2022-07-29T22:57:40.635Z,100479.59
2022-07-29T23:00:09.335Z,100492.22
2022-07-29T23:02:37.349Z,100480.59
2022-07-29T23:05:05.423Z,100477.91
2022-07-29T23:07:35.768Z,100469.97
2022-07-29T23:10:03.516Z,100474.50
2022-07-29T23:12:31.224Z,100473.66
2022-07-29T23:14:58.936Z,100470.13
2022-07-29T23:17:26.628Z,100475.50
2022-07-29T23:19:54.359Z,100472.81
2022-07-29T23:22:22.087Z,100465.75
2022-07-29T23:24:51.149Z,100460.34
2022-07-29T23:27:18.847Z,100464.88
2022-07-29T23:29:46.580Z,100459.63
2022-07-29T23:32:14.271Z,100446.19
2022-07-29T23:34:41.958Z,100449.88
2022-07-29T23:37:09.686Z,100453.53
2022-07-29T23:39:37.375Z,100457.94
2022-07-29T23:42:06.637Z,100446.72
2022-07-29T23:44:34.382Z,100451.97
2022-07-29T23:47:02.663Z,100453.66
2022-07-29T23:49:30.564Z,100455.53
2022-07-29T23:51:58.278Z,100443.03
2022-07-29T23:54:25.963Z,100449.28
2022-07-29T23:56:53.679Z,100444.91
2022-07-29T23:59:22.721Z,100452.13
